createdAt,value
2018-09-21T00:00:45.252Z,1004.77
2018-09-21T00:01:45.246Z,1004.76
2018-09-21T00:02:45.229Z,1004.77
2018-09-21T00:03:45.217Z,1004.68
2018-09-21T00:04:45.233Z,1004.71
2018-09-21T00:05:45.195Z,1004.62
2018-09-21T00:06:45.183Z,1004.65
2018-09-21T00:07:45.213Z,1004.60
2018-09-21T00:08:45.163Z,1004.61
2018-09-21T00:09:45.154Z,1004.60
2018-09-21T00:10:45.145Z,1004.58
2018-09-21T00:11:45.186Z,1004.55
2018-09-21T00:12:45.158Z,1004.58
2018-09-21T00:13:45.110Z,1004.54
2018-09-21T00:14:45.101Z,1004.53
2018-09-21T00:15:45.082Z,1004.50
2018-09-21T00:16:45.074Z,1004.47
2018-09-21T00:17:45.101Z,1004.46
2018-09-21T00:18:45.054Z,1004.51
2018-09-21T00:19:45.083Z,1004.50
2018-09-21T00:20:45.031Z,1004.49
2018-09-21T00:21:45.022Z,1004.53
2018-09-21T00:22:45.045Z,1004.45
2018-09-21T00:23:44.999Z,1004.48
2018-09-21T00:24:45.019Z,1004.47
2018-09-21T00:25:44.974Z,1004.39
2018-09-21T00:26:44.969Z,1004.40
2018-09-21T00:27:44.957Z,1004.39
2018-09-21T00:28:44.945Z,1004.35
2018-09-21T00:29:44.967Z,1004.40
2018-09-21T00:30:44.919Z,1004.35
2018-09-21T00:31:44.905Z,1004.43
2018-09-21T00:32:45.520Z,1004.38
2018-09-21T00:33:44.886Z,1004.36
2018-09-21T00:34:44.928Z,1004.36
2018-09-21T00:35:44.871Z,1004.37
2018-09-21T00:36:44.861Z,1004.34
2018-09-21T00:37:44.848Z,1004.41
2018-09-21T00:38:44.829Z,1004.34
2018-09-21T00:39:44.856Z,1004.29
2018-09-21T00:40:44.809Z,1004.30
2018-09-21T00:41:44.799Z,1004.27
2018-09-21T00:42:44.823Z,1004.34
2018-09-21T00:43:44.776Z,1004.26
2018-09-21T00:44:44.772Z,1004.24
2018-09-21T00:45:44.793Z,1004.20
2018-09-21T00:46:44.745Z,1004.26
2018-09-21T00:47:44.735Z,1004.20
2018-09-21T00:48:44.760Z,1004.20
2018-09-21T00:49:44.711Z,1004.13
2018-09-21T00:50:44.732Z,1004.08
2018-09-21T00:51:44.701Z,1004.11
2018-09-21T00:52:44.692Z,1004.09
2018-09-21T00:53:44.667Z,1004.04
2018-09-21T00:54:44.661Z,1004.03
2018-09-21T00:55:44.692Z,1004.01
2018-09-21T00:56:44.632Z,1004.00
2018-09-21T00:57:44.623Z,1003.99
2018-09-21T00:58:44.608Z,1003.92
2018-09-21T00:59:44.603Z,1003.96
2018-09-21T01:00:44.625Z,1003.89
2018-09-21T01:01:44.580Z,1003.91
2018-09-21T01:02:44.576Z,1003.95
2018-09-21T01:03:44.555Z,1003.86
2018-09-21T01:04:44.546Z,1003.87
2018-09-21T01:05:44.570Z,1003.90
2018-09-21T01:06:44.526Z,1003.88
2018-09-21T01:07:44.512Z,1003.89
2018-09-21T01:08:44.502Z,1003.97
2018-09-21T01:09:44.492Z,1003.92
2018-09-21T01:10:44.522Z,1003.90
2018-09-21T01:11:44.473Z,1003.93
2018-09-21T01:12:44.475Z,1003.86
2018-09-21T01:13:44.449Z,1003.83
2018-09-21T01:14:44.433Z,1003.84
2018-09-21T01:15:44.444Z,1003.87
2018-09-21T01:16:44.441Z,1003.80
2018-09-21T01:17:44.401Z,1003.75
2018-09-21T01:18:44.391Z,1003.76
2018-09-21T01:19:44.379Z,1003.77
2018-09-21T01:20:44.368Z,1003.77
2018-09-21T01:21:44.404Z,1003.70
2018-09-21T01:22:44.353Z,1003.68
2018-09-21T01:23:44.367Z,1003.63
2018-09-21T01:24:44.325Z,1003.55
2018-09-21T01:25:44.309Z,1003.52
2018-09-21T01:26:44.299Z,1003.54
2018-09-21T01:27:44.309Z,1003.54
2018-09-21T01:28:44.293Z,1003.47
2018-09-21T01:29:44.266Z,1003.45
2018-09-21T01:30:44.283Z,1003.43
2018-09-21T01:31:44.240Z,1003.40
2018-09-21T01:32:44.244Z,1003.34
2018-09-21T01:33:44.225Z,1003.41
2018-09-21T01:34:44.255Z,1003.40
2018-09-21T01:35:44.212Z,1003.40
2018-09-21T01:36:44.188Z,1003.38
2018-09-21T01:37:44.179Z,1003.28
2018-09-21T01:38:44.170Z,1003.30
2018-09-21T01:39:44.193Z,1003.35
2018-09-21T01:40:44.143Z,1003.30
2018-09-21T01:41:44.140Z,1003.28
2018-09-21T01:42:44.133Z,1003.23
2018-09-21T01:43:44.108Z,1003.25
2018-09-21T01:44:44.184Z,1003.20
2018-09-21T01:45:44.092Z,1003.18
2018-09-21T01:46:44.127Z,1003.26
2018-09-21T01:47:44.072Z,1003.19
2018-09-21T01:48:44.065Z,1003.19
2018-09-21T01:49:44.042Z,1003.20
2018-09-21T01:50:44.031Z,1003.24
2018-09-21T01:51:44.042Z,1003.17
2018-09-21T01:52:44.012Z,1003.21
2018-09-21T01:53:44.017Z,1003.21
2018-09-21T01:54:43.988Z,1003.20
2018-09-21T01:55:44.010Z,1003.20
2018-09-21T01:56:43.967Z,1003.21
2018-09-21T01:57:43.983Z,1003.11
2018-09-21T01:58:43.951Z,1003.12
2018-09-21T01:59:43.975Z,1003.07
2018-09-21T02:00:43.920Z,1003.04
2018-09-21T02:01:43.911Z,1003.05
2018-09-21T02:02:43.900Z,1003.07
2018-09-21T02:03:43.888Z,1003.03
2018-09-21T02:04:43.917Z,1003.00
2018-09-21T02:05:43.899Z,1002.99
2018-09-21T02:06:43.853Z,1002.96
2018-09-21T02:07:43.844Z,1002.98
2018-09-21T02:08:43.897Z,1002.91
2018-09-21T02:09:43.857Z,1002.90
2018-09-21T02:10:43.841Z,1002.92
2018-09-21T02:11:43.798Z,1002.86
2018-09-21T02:12:43.824Z,1002.84
2018-09-21T02:13:43.778Z,1002.76
2018-09-21T02:14:43.765Z,1002.74
2018-09-21T02:15:43.754Z,1002.74
2018-09-21T02:16:43.744Z,1002.78
2018-09-21T02:17:43.788Z,1002.73
2018-09-21T02:18:43.718Z,1002.65
2018-09-21T02:19:43.741Z,1002.54
2018-09-21T02:20:43.704Z,1002.60
2018-09-21T02:21:43.692Z,1002.54
2018-09-21T02:22:43.715Z,1002.55
2018-09-21T02:23:43.698Z,1002.52
2018-09-21T02:24:43.740Z,1002.43
2018-09-21T02:25:43.641Z,1002.45
2018-09-21T02:26:43.629Z,1002.39
2018-09-21T02:27:43.643Z,1002.40
2018-09-21T02:28:43.636Z,1002.37
2018-09-21T02:29:43.642Z,1002.39
2018-09-21T02:30:43.629Z,1002.33
2018-09-21T02:31:43.581Z,1002.35
2018-09-21T02:32:43.565Z,1002.30
2018-09-21T02:33:43.558Z,1002.29
2018-09-21T02:34:43.546Z,1002.34
2018-09-21T02:35:43.562Z,1002.27
2018-09-21T02:36:43.527Z,1002.20
2018-09-21T02:37:43.513Z,1002.13
2018-09-21T02:38:43.530Z,1002.03
2018-09-21T02:39:43.488Z,1002.01
2018-09-21T02:40:43.486Z,1002.03
2018-09-21T02:41:43.469Z,1002.00
2018-09-21T02:42:43.454Z,1001.98
2018-09-21T02:43:43.476Z,1001.95
2018-09-21T02:44:43.441Z,1001.99
2018-09-21T02:45:43.455Z,1001.95
2018-09-21T02:46:43.412Z,1001.92
2018-09-21T02:47:43.403Z,1001.88
2018-09-21T02:48:43.525Z,1001.84
2018-09-21T02:49:43.410Z,1001.82
2018-09-21T02:50:43.378Z,1001.83
2018-09-21T02:51:43.359Z,1001.78
2018-09-21T02:52:43.343Z,1001.80
2018-09-21T02:53:43.333Z,1001.81
2018-09-21T02:54:43.362Z,1001.77
2018-09-21T02:55:43.313Z,1001.74
2018-09-21T02:56:43.327Z,1001.76
2018-09-21T02:57:43.294Z,1001.78
2018-09-21T02:58:43.281Z,1001.70
2018-09-21T02:59:43.305Z,1001.69
2018-09-21T03:00:43.422Z,1001.69
2018-09-21T03:01:43.250Z,1001.66
2018-09-21T03:02:43.235Z,1001.65
2018-09-21T03:03:43.224Z,1001.58
2018-09-21T03:04:43.348Z,1001.52
2018-09-21T03:05:43.204Z,1001.50
2018-09-21T03:06:43.203Z,1001.46
2018-09-21T03:07:43.224Z,1001.44
2018-09-21T03:08:43.172Z,1001.47
2018-09-21T03:09:43.156Z,1001.46
2018-09-21T03:10:43.145Z,1001.45
2018-09-21T03:11:43.247Z,1001.35
2018-09-21T03:12:43.125Z,1001.34
2018-09-21T03:13:43.113Z,1001.35
2018-09-21T03:14:43.103Z,1001.34
2018-09-21T03:15:43.150Z,1001.33
2018-09-21T03:16:43.080Z,1001.29
2018-09-21T03:17:43.081Z,1001.21
2018-09-21T03:18:43.073Z,1001.17
2018-09-21T03:19:43.046Z,1001.11
2018-09-21T03:20:43.136Z,1001.18
2018-09-21T03:21:43.027Z,1001.11
2018-09-21T03:22:43.015Z,1001.12
2018-09-21T03:23:43.003Z,1001.13
2018-09-21T03:24:43.070Z,1001.01
2018-09-21T03:25:42.981Z,1001.06
2018-09-21T03:26:43.015Z,1001.04
2018-09-21T03:27:42.960Z,1000.98
2018-09-21T03:28:42.961Z,1000.98
2018-09-21T03:29:42.943Z,1000.93
2018-09-21T03:30:42.963Z,1000.98
2018-09-21T03:31:42.913Z,1001.00
2018-09-21T03:32:42.909Z,1001.00
2018-09-21T03:33:42.904Z,1001.01
2018-09-21T03:34:42.881Z,1000.97
2018-09-21T03:35:42.937Z,1000.97
2018-09-21T03:36:42.925Z,1000.92
2018-09-21T03:37:42.854Z,1000.87
2018-09-21T03:38:42.839Z,1000.82
2018-09-21T03:39:42.835Z,1000.86
2018-09-21T03:40:42.866Z,1000.76
2018-09-21T03:41:42.815Z,1000.77
2018-09-21T03:42:42.795Z,1000.71
2018-09-21T03:43:42.860Z,1000.79
2018-09-21T03:44:42.826Z,1000.71
2018-09-21T03:45:42.835Z,1000.62
2018-09-21T03:46:42.751Z,1000.53
2018-09-21T03:47:42.867Z,1000.56
2018-09-21T03:48:42.726Z,1000.56
2018-09-21T03:49:49.774Z,1000.72
2018-09-21T03:50:42.709Z,1000.59
2018-09-21T03:51:42.699Z,1000.65
2018-09-21T03:52:42.731Z,1000.58
2018-09-21T03:53:42.722Z,1000.54
2018-09-21T03:54:42.659Z,1000.52
2018-09-21T03:55:42.654Z,1000.49
2018-09-21T03:56:42.703Z,1000.51
2018-09-21T03:57:42.633Z,1000.49
2018-09-21T03:58:42.729Z,1000.44
2018-09-21T03:59:42.611Z,1000.45
2018-09-21T04:00:43.590Z,1000.45
2018-09-21T04:01:42.636Z,1000.43
2018-09-21T04:02:42.573Z,1000.41
2018-09-21T04:03:42.566Z,1000.42
2018-09-21T04:04:42.685Z,1000.43
2018-09-21T04:05:42.549Z,1000.40
2018-09-21T04:06:42.538Z,1000.45
2018-09-21T04:07:42.517Z,1000.46
2018-09-21T04:08:42.513Z,1000.43
2018-09-21T04:09:42.567Z,1000.46
2018-09-21T04:10:42.483Z,1000.49
2018-09-21T04:11:42.478Z,1000.41
2018-09-21T04:12:42.469Z,1000.35
2018-09-21T04:13:42.456Z,1000.33
2018-09-21T04:14:42.474Z,1000.34
2018-09-21T04:15:42.447Z,1000.34
2018-09-21T04:16:42.540Z,1000.35
2018-09-21T04:17:42.416Z,1000.19
2018-09-21T04:18:42.400Z,1000.29
2018-09-21T04:19:42.417Z,1000.35
2018-09-21T04:20:42.423Z,1000.35
2018-09-21T04:21:42.373Z,1000.32
2018-09-21T04:22:42.361Z,1000.29
2018-09-21T04:23:42.341Z,1000.27
2018-09-21T04:24:42.332Z,1000.33
2018-09-21T04:25:42.387Z,1000.29
2018-09-21T04:26:42.313Z,1000.29
2018-09-21T04:27:42.352Z,1000.24
2018-09-21T04:28:42.290Z,1000.24
2018-09-21T04:29:42.411Z,1000.14
2018-09-21T04:30:42.266Z,1000.25
2018-09-21T04:31:42.259Z,1000.18
2018-09-21T04:32:42.252Z,1000.14
2018-09-21T04:33:42.246Z,1000.17
2018-09-21T04:34:42.291Z,1000.16
2018-09-21T04:35:42.221Z,1000.09
2018-09-21T04:36:42.202Z,1000.09
2018-09-21T04:37:42.195Z,1000.10
2018-09-21T04:38:42.192Z,1000.03
2018-09-21T04:39:42.236Z,1000.13
2018-09-21T04:40:42.172Z,1000.08
2018-09-21T04:41:42.166Z,1000.02
2018-09-21T04:42:42.196Z,1000.06
2018-09-21T04:43:42.130Z,1000.06
2018-09-21T04:44:42.118Z,1000.03
2018-09-21T04:45:42.157Z,1000.08
2018-09-21T04:46:42.097Z,999.99
2018-09-21T04:47:42.146Z,1000.02
2018-09-21T04:48:42.082Z,1000.07
2018-09-21T04:49:42.071Z,1000.04
2018-09-21T04:50:42.110Z,1000.03
2018-09-21T04:51:42.040Z,999.99
2018-09-21T04:52:42.023Z,1000.05
2018-09-21T04:53:42.020Z,1000.06
2018-09-21T04:54:42.002Z,999.98
2018-09-21T04:55:42.146Z,1000.05
2018-09-21T04:56:42.004Z,1000.01
2018-09-21T04:57:41.968Z,1000.09
2018-09-21T04:58:41.967Z,1000.19
2018-09-21T04:59:42.108Z,1000.18
2018-09-21T05:00:41.943Z,1000.19
2018-09-21T05:01:41.927Z,1000.17
2018-09-21T05:02:41.930Z,1000.13
2018-09-21T05:03:41.911Z,1000.08
2018-09-21T05:04:41.975Z,1000.08
2018-09-21T05:05:41.891Z,1000.08
2018-09-21T05:06:41.972Z,1000.04
2018-09-21T05:07:41.868Z,1000.03
2018-09-21T05:08:41.853Z,1000.07
2018-09-21T05:09:41.898Z,999.99
2018-09-21T05:10:41.871Z,999.94
2018-09-21T05:11:41.822Z,1000.00
2018-09-21T05:12:41.905Z,1000.00
2018-09-21T05:13:41.845Z,999.92
2018-09-21T05:14:41.782Z,999.91
2018-09-21T05:15:41.826Z,999.94
2018-09-21T05:16:41.766Z,999.95
2018-09-21T05:17:41.749Z,1000.00
2018-09-21T05:18:41.748Z,999.89
2018-09-21T05:19:41.750Z,999.84
2018-09-21T05:20:41.828Z,999.94
2018-09-21T05:21:41.709Z,999.99
2018-09-21T05:22:41.872Z,999.83
2018-09-21T05:23:41.686Z,999.84
2018-09-21T05:24:41.728Z,999.91
2018-09-21T05:25:41.679Z,999.91
2018-09-21T05:26:41.718Z,999.87
2018-09-21T05:27:41.768Z,999.88
2018-09-21T05:28:41.667Z,999.78
2018-09-21T05:29:41.617Z,999.78
2018-09-21T05:30:41.612Z,999.89
2018-09-21T05:31:41.764Z,999.76
2018-09-21T05:32:41.596Z,999.75
2018-09-21T05:33:41.576Z,999.74
2018-09-21T05:34:41.727Z,999.80
2018-09-21T05:35:41.548Z,999.82
2018-09-21T05:36:41.695Z,999.76
2018-09-21T05:37:41.537Z,999.75
2018-09-21T05:38:41.529Z,999.78
2018-09-21T05:39:41.877Z,999.68
2018-09-21T05:40:41.502Z,999.70
2018-09-21T05:41:41.487Z,999.72
2018-09-21T05:42:41.480Z,999.72
2018-09-21T05:43:41.464Z,999.72
2018-09-21T05:44:41.492Z,999.63
2018-09-21T05:45:41.495Z,999.69
2018-09-21T05:46:41.435Z,999.62
2018-09-21T05:47:41.428Z,999.61
2018-09-21T05:48:41.428Z,999.65
2018-09-21T05:49:41.402Z,999.67
2018-09-21T05:50:41.578Z,999.73
2018-09-21T05:51:41.375Z,999.75
2018-09-21T05:52:41.476Z,999.69
2018-09-21T05:53:41.362Z,999.62
2018-09-21T05:54:41.428Z,999.67
2018-09-21T05:55:41.334Z,999.75
2018-09-21T05:56:41.322Z,999.70
2018-09-21T05:57:41.317Z,999.64
2018-09-21T05:58:41.306Z,999.77
2018-09-21T05:59:41.348Z,999.86
2018-09-21T06:00:41.290Z,999.75
2018-09-21T06:01:41.311Z,999.82
2018-09-21T06:02:41.267Z,999.67
2018-09-21T06:03:41.349Z,999.71
2018-09-21T06:04:41.297Z,999.77
2018-09-21T06:05:41.235Z,999.73
2018-09-21T06:06:41.209Z,999.63
2018-09-21T06:07:41.247Z,999.61
2018-09-21T06:08:41.247Z,999.53
2018-09-21T06:09:41.184Z,999.67
2018-09-21T06:10:41.172Z,999.67
2018-09-21T06:11:41.160Z,999.60
2018-09-21T06:12:41.217Z,999.55
2018-09-21T06:13:41.196Z,999.52
2018-09-21T06:14:41.126Z,999.58
2018-09-21T06:15:41.117Z,999.66
2018-09-21T06:16:41.148Z,999.72
2018-09-21T06:17:41.089Z,999.65
2018-09-21T06:18:41.145Z,999.63
2018-09-21T06:19:41.068Z,999.81
2018-09-21T06:20:41.060Z,999.80
2018-09-21T06:21:41.050Z,999.85
2018-09-21T06:22:45.104Z,999.82
2018-09-21T06:23:41.027Z,999.79
2018-09-21T06:24:41.147Z,999.76
2018-09-21T06:25:41.002Z,999.88
2018-09-21T06:26:40.993Z,999.86
2018-09-21T06:27:41.000Z,1000.00
2018-09-21T06:28:40.980Z,999.98
2018-09-21T06:29:40.998Z,1000.11
2018-09-21T06:30:40.946Z,1000.07
2018-09-21T06:31:40.937Z,1000.02
2018-09-21T06:32:40.960Z,1000.04
2018-09-21T06:33:40.916Z,1000.02
2018-09-21T06:34:40.950Z,1000.04
2018-09-21T06:35:40.895Z,1000.13
2018-09-21T06:36:40.886Z,1000.11
2018-09-21T06:37:40.877Z,1000.00
2018-09-21T06:38:40.868Z,999.98
2018-09-21T06:39:40.938Z,999.90
2018-09-21T06:40:40.835Z,999.93
2018-09-21T06:41:40.825Z,999.74
2018-09-21T06:42:40.835Z,999.81
2018-09-21T06:43:40.811Z,999.73
2018-09-21T06:44:40.858Z,999.71
2018-09-21T06:45:40.793Z,999.76
2018-09-21T06:46:40.771Z,999.76
2018-09-21T06:47:40.765Z,999.83
2018-09-21T06:48:40.763Z,999.96
2018-09-21T06:49:40.856Z,999.99
2018-09-21T06:50:40.731Z,999.92
2018-09-21T06:51:40.932Z,999.91
2018-09-21T06:52:40.707Z,999.84
2018-09-21T06:53:40.690Z,999.85
2018-09-21T06:54:40.683Z,999.97
2018-09-21T06:55:40.682Z,1000.01
2018-09-21T06:56:40.800Z,999.99
2018-09-21T06:57:40.698Z,1000.14
2018-09-21T06:58:40.637Z,1000.00
2018-09-21T06:59:40.632Z,1000.08
2018-09-21T07:00:40.613Z,999.92
2018-09-21T07:01:40.623Z,999.91
2018-09-21T07:02:40.878Z,999.93
2018-09-21T07:03:40.590Z,1000.02
2018-09-21T07:04:40.660Z,999.94
2018-09-21T07:05:40.563Z,999.95
2018-09-21T07:06:40.557Z,1000.04
2018-09-21T07:07:40.541Z,1000.11
2018-09-21T07:08:40.537Z,1000.14
2018-09-21T07:09:40.617Z,1000.17
2018-09-21T07:10:40.779Z,1000.36
2018-09-21T07:11:40.503Z,1000.31
2018-09-21T07:12:40.562Z,1000.26
2018-09-21T07:13:40.475Z,1000.18
2018-09-21T07:14:40.465Z,1000.24
2018-09-21T07:15:40.592Z,1000.30
2018-09-21T07:16:40.454Z,1000.28
2018-09-21T07:17:40.505Z,1000.25
2018-09-21T07:18:40.459Z,1000.36
2018-09-21T07:19:40.408Z,1000.33
2018-09-21T07:20:40.403Z,1000.13
2018-09-21T07:21:40.525Z,1000.13
2018-09-21T07:22:40.374Z,1000.21
2018-09-21T07:23:40.361Z,1000.21
2018-09-21T07:24:40.358Z,1000.32
2018-09-21T07:25:40.345Z,1000.38
2018-09-21T07:26:40.521Z,1000.27
2018-09-21T07:27:40.320Z,1000.36
2018-09-21T07:28:40.438Z,1000.39
2018-09-21T07:29:40.312Z,1000.35
2018-09-21T07:30:40.298Z,1000.42
2018-09-21T07:31:40.282Z,1000.48
2018-09-21T07:32:40.513Z,1000.45
2018-09-21T07:33:40.257Z,1000.52
2018-09-21T07:34:40.263Z,1000.41
2018-09-21T07:35:40.232Z,1000.39
2018-09-21T07:36:40.220Z,1000.37
2018-09-21T07:37:40.411Z,1000.30
2018-09-21T07:38:40.200Z,1000.41
2018-09-21T07:39:40.193Z,1000.20
2018-09-21T07:40:40.178Z,1000.15
2018-09-21T07:41:40.170Z,1000.16
2018-09-21T07:42:40.253Z,1000.15
2018-09-21T07:43:40.144Z,1000.17
2018-09-21T07:44:40.243Z,1000.11
2018-09-21T07:45:40.124Z,1000.10
2018-09-21T07:46:40.305Z,1000.13
2018-09-21T07:47:40.108Z,1000.14
2018-09-21T07:48:40.099Z,1000.03
2018-09-21T07:49:40.079Z,999.99
2018-09-21T07:50:40.137Z,999.95
2018-09-21T07:51:40.137Z,999.84
2018-09-21T07:52:40.106Z,999.79
2018-09-21T07:53:40.047Z,999.83
2018-09-21T07:54:40.028Z,999.86
2018-09-21T07:55:40.015Z,999.82
2018-09-21T07:56:40.243Z,999.97
2018-09-21T07:57:40.000Z,999.98
2018-09-21T07:58:39.982Z,1000.03
2018-09-21T07:59:40.062Z,999.99
2018-09-21T08:00:39.969Z,1000.01
2018-09-21T08:01:39.951Z,1000.01
2018-09-21T08:02:39.936Z,1000.06
2018-09-21T08:03:39.927Z,999.99
2018-09-21T08:04:40.082Z,999.99
2018-09-21T08:05:39.909Z,1000.11
2018-09-21T08:06:39.897Z,1000.07
2018-09-21T08:07:39.882Z,1000.07
2018-09-21T08:08:39.939Z,1000.08
2018-09-21T08:09:40.011Z,1000.10
2018-09-21T08:10:39.851Z,1000.07
2018-09-21T08:11:39.843Z,1000.03
2018-09-21T08:12:39.855Z,1000.00
2018-09-21T08:13:39.859Z,1000.04
2018-09-21T08:14:39.818Z,999.98
2018-09-21T08:15:39.798Z,999.85
2018-09-21T08:16:39.788Z,999.84
2018-09-21T08:17:40.076Z,999.82
2018-09-21T08:18:39.765Z,999.83
2018-09-21T08:19:39.757Z,999.72
2018-09-21T08:20:39.742Z,999.77
2018-09-21T08:21:39.730Z,999.81
2018-09-21T08:22:39.936Z,999.82
2018-09-21T08:23:39.707Z,999.86
2018-09-21T08:24:39.704Z,999.75
2018-09-21T08:25:39.689Z,999.73
2018-09-21T08:26:39.758Z,999.84
2018-09-21T08:27:39.712Z,999.88
2018-09-21T08:28:39.695Z,999.93
2018-09-21T08:29:39.654Z,1000.10
2018-09-21T08:30:39.642Z,1000.18
2018-09-21T08:31:39.625Z,1000.36
2018-09-21T08:32:39.811Z,1000.61
2018-09-21T08:33:39.604Z,1000.87
2018-09-21T08:34:39.777Z,1001.14
2018-09-21T08:35:39.591Z,1001.32
2018-09-21T08:36:39.580Z,1001.54
2018-09-21T08:37:39.557Z,1001.85
2018-09-21T08:38:39.545Z,1001.86
2018-09-21T08:39:39.672Z,1002.19
2018-09-21T08:40:39.527Z,1002.05
2018-09-21T08:41:39.519Z,1002.34
2018-09-21T08:42:39.515Z,1002.51
2018-09-21T08:43:39.610Z,1002.47
2018-09-21T08:44:39.530Z,1002.57
2018-09-21T08:45:39.526Z,1002.59
2018-09-21T08:46:39.631Z,1002.62
2018-09-21T08:47:39.452Z,1002.60
2018-09-21T08:48:39.439Z,1002.48
2018-09-21T08:49:39.430Z,1002.46
2018-09-21T08:50:39.409Z,1002.60
2018-09-21T08:51:39.642Z,1002.44
2018-09-21T08:52:39.386Z,1002.57
2018-09-21T08:53:39.378Z,1002.69
2018-09-21T08:54:39.459Z,1002.72
2018-09-21T08:55:39.359Z,1002.77
2018-09-21T08:56:39.341Z,1002.68
2018-09-21T08:57:39.337Z,1002.69
2018-09-21T08:58:39.551Z,1002.71
2018-09-21T08:59:39.312Z,1002.54
2018-09-21T09:00:39.304Z,1002.55
2018-09-21T09:01:39.292Z,1002.53
2018-09-21T09:02:39.281Z,1002.53
2018-09-21T09:03:39.460Z,1002.52
2018-09-21T09:04:39.258Z,1002.54
2018-09-21T09:05:39.242Z,1002.56
2018-09-21T09:06:39.239Z,1002.62
2018-09-21T09:07:39.221Z,1002.77
2018-09-21T09:08:39.324Z,1002.75
2018-09-21T09:09:39.490Z,1002.83
2018-09-21T09:10:39.193Z,1002.73
2018-09-21T09:11:39.182Z,1002.83
2018-09-21T09:12:39.172Z,1002.87
2018-09-21T09:13:39.157Z,1002.98
2018-09-21T09:14:39.244Z,1003.18
2018-09-21T09:15:39.224Z,1003.11
2018-09-21T09:16:39.128Z,1003.23
2018-09-21T09:17:39.137Z,1003.30
2018-09-21T09:18:39.106Z,1003.40
2018-09-21T09:19:39.167Z,1003.37
2018-09-21T09:20:39.082Z,1003.46
2018-09-21T09:21:39.080Z,1003.57
2018-09-21T09:22:39.055Z,1003.42
2018-09-21T09:23:39.130Z,1003.26
2018-09-21T09:24:39.084Z,1003.31
2018-09-21T09:25:39.028Z,1003.32
2018-09-21T09:26:39.014Z,1003.30
2018-09-21T09:27:39.006Z,1003.19
2018-09-21T09:28:39.058Z,1003.14
2018-09-21T09:29:38.976Z,1003.17
2018-09-21T09:30:38.963Z,1003.25
2018-09-21T09:31:38.958Z,1003.30
2018-09-21T09:32:38.942Z,1003.35
2018-09-21T09:33:39.060Z,1003.46
2018-09-21T09:34:39.023Z,1003.47
2018-09-21T09:35:39.055Z,1003.55
2018-09-21T09:36:38.901Z,1003.49
2018-09-21T09:37:38.889Z,1003.45
2018-09-21T09:38:39.683Z,1003.42
2018-09-21T09:39:38.997Z,1003.43
2018-09-21T09:40:38.853Z,1003.40
2018-09-21T09:41:38.845Z,1003.40
2018-09-21T09:42:39.107Z,1003.51
2018-09-21T09:43:38.821Z,1003.53
2018-09-21T09:44:38.809Z,1003.51
2018-09-21T09:45:38.898Z,1003.39
2018-09-21T09:46:38.792Z,1003.49
2018-09-21T09:47:38.919Z,1003.44
2018-09-21T09:48:38.872Z,1003.41
2018-09-21T09:49:38.755Z,1003.40
2018-09-21T09:50:45.791Z,1003.38
2018-09-21T09:51:38.729Z,1003.29
2018-09-21T09:52:38.972Z,1003.34
2018-09-21T09:53:38.719Z,1003.46
2018-09-21T09:54:38.761Z,1003.55
2018-09-21T09:55:38.689Z,1003.50
2018-09-21T09:56:38.720Z,1003.45
2018-09-21T09:57:38.672Z,1003.50
2018-09-21T09:58:38.659Z,1003.43
2018-09-21T09:59:38.650Z,1003.45
2018-09-21T10:00:38.644Z,1003.36
2018-09-21T10:01:38.670Z,1003.23
2018-09-21T10:02:38.616Z,1003.35
2018-09-21T10:03:38.677Z,1003.38
2018-09-21T10:04:38.620Z,1003.45
2018-09-21T10:05:38.580Z,1003.45
2018-09-21T10:06:38.577Z,1003.51
2018-09-21T10:07:38.592Z,1003.48
2018-09-21T10:08:38.554Z,1003.56
2018-09-21T10:09:38.569Z,1003.53
2018-09-21T10:10:38.579Z,1003.60
2018-09-21T10:11:38.516Z,1003.51
2018-09-21T10:12:38.546Z,1003.42
2018-09-21T10:13:38.498Z,1003.42
2018-09-21T10:14:38.479Z,1003.44
2018-09-21T10:15:38.474Z,1003.52
2018-09-21T10:16:38.462Z,1003.59
2018-09-21T10:17:38.499Z,1003.50
2018-09-21T10:18:38.435Z,1003.53
2018-09-21T10:19:38.426Z,1003.56
2018-09-21T10:20:38.463Z,1003.51
2018-09-21T10:21:38.402Z,1003.56
2018-09-21T10:22:38.444Z,1003.50
2018-09-21T10:23:38.393Z,1003.56
2018-09-21T10:24:38.416Z,1003.60
2018-09-21T10:25:38.357Z,1003.57
2018-09-21T10:26:38.425Z,1003.55
2018-09-21T10:27:38.508Z,1003.61
2018-09-21T10:28:38.545Z,1003.62
2018-09-21T10:29:38.343Z,1003.70
2018-09-21T10:30:38.310Z,1003.69
2018-09-21T10:31:38.425Z,1003.73
2018-09-21T10:32:38.317Z,1003.65
2018-09-21T10:33:38.362Z,1003.67
2018-09-21T10:34:38.351Z,1003.69
2018-09-21T10:35:38.269Z,1003.61
2018-09-21T10:36:38.248Z,1003.66
2018-09-21T10:37:38.236Z,1003.73
2018-09-21T10:38:38.265Z,1003.71
2018-09-21T10:39:38.232Z,1003.76
2018-09-21T10:40:38.193Z,1003.78
2018-09-21T10:41:38.176Z,1003.76
2018-09-21T10:42:38.378Z,1003.85
2018-09-21T10:43:38.161Z,1003.82
2018-09-21T10:44:38.170Z,1003.73
2018-09-21T10:45:38.132Z,1003.73
2018-09-21T10:46:38.130Z,1003.75
2018-09-21T10:48:15.811Z,1003.69
2018-09-21T10:48:39.752Z,1003.67
2018-09-21T10:49:38.126Z,1003.70
2018-09-21T10:50:38.209Z,1003.67
2018-09-21T10:51:38.107Z,1003.70
2018-09-21T10:52:38.156Z,1003.74
2018-09-21T10:53:38.121Z,1003.75
2018-09-21T10:54:38.105Z,1003.75
2018-09-21T10:55:38.064Z,1003.76
2018-09-21T10:56:38.045Z,1003.82
2018-09-21T10:57:38.012Z,1003.83
2018-09-21T10:58:37.995Z,1003.80
2018-09-21T10:59:37.989Z,1003.87
2018-09-21T11:00:38.049Z,1003.83
2018-09-21T11:01:37.960Z,1003.86
2018-09-21T11:02:37.984Z,1003.83
2018-09-21T11:03:37.940Z,1003.84
2018-09-21T11:04:37.923Z,1003.85
2018-09-21T11:05:37.921Z,1003.79
2018-09-21T11:06:38.009Z,1003.72
2018-09-21T11:07:37.894Z,1003.72
2018-09-21T11:08:37.881Z,1003.78
2018-09-21T11:09:37.879Z,1003.76
2018-09-21T11:10:37.860Z,1003.76
2018-09-21T11:11:37.879Z,1003.72
2018-09-21T11:12:37.899Z,1003.71
2018-09-21T11:13:37.826Z,1003.82
2018-09-21T11:14:37.815Z,1003.79
2018-09-21T11:15:37.807Z,1003.75
2018-09-21T11:16:37.792Z,1003.80
2018-09-21T11:17:37.848Z,1003.81
2018-09-21T11:18:37.767Z,1003.80
2018-09-21T11:19:37.763Z,1003.88
2018-09-21T11:20:37.757Z,1003.94
2018-09-21T11:21:37.735Z,1003.99
2018-09-21T11:22:37.871Z,1003.99
2018-09-21T11:23:37.718Z,1004.04
2018-09-21T11:24:37.702Z,1004.09
2018-09-21T11:25:37.691Z,1003.98
2018-09-21T11:26:37.692Z,1004.05
2018-09-21T11:27:37.741Z,1004.00
2018-09-21T11:28:37.659Z,1004.02
2018-09-21T11:29:37.652Z,1004.01
2018-09-21T11:30:37.687Z,1004.05
2018-09-21T11:31:37.667Z,1004.09
2018-09-21T11:32:37.614Z,1004.09
2018-09-21T11:33:37.605Z,1004.10
2018-09-21T11:34:37.589Z,1004.13
2018-09-21T11:35:37.613Z,1004.08
2018-09-21T11:36:37.575Z,1004.16
2018-09-21T11:37:37.590Z,1004.13
2018-09-21T11:38:37.542Z,1004.06
2018-09-21T11:39:37.529Z,1004.06
2018-09-21T11:40:37.528Z,1004.07
2018-09-21T11:41:37.515Z,1004.09
2018-09-21T11:42:37.528Z,1004.07
2018-09-21T11:43:37.490Z,1004.02
2018-09-21T11:44:37.518Z,1004.09
2018-09-21T11:45:37.503Z,1004.02
2018-09-21T11:46:37.595Z,1004.06
2018-09-21T11:47:37.588Z,1004.06
2018-09-21T11:48:37.483Z,1004.10
2018-09-21T11:49:37.426Z,1004.09
2018-09-21T11:50:37.414Z,1004.11
2018-09-21T11:51:37.416Z,1004.07
2018-09-21T11:52:37.435Z,1004.15
2018-09-21T11:53:37.374Z,1004.09
2018-09-21T11:54:37.372Z,1004.07
2018-09-21T11:55:37.356Z,1004.09
2018-09-21T11:56:37.358Z,1004.10
2018-09-21T11:57:37.384Z,1004.11
2018-09-21T11:58:37.332Z,1004.22
2018-09-21T11:59:37.322Z,1004.16
2018-09-21T12:00:37.303Z,1004.16
2018-09-21T12:01:37.303Z,1004.22
2018-09-21T12:02:37.385Z,1004.18
2018-09-21T12:03:37.278Z,1004.19
2018-09-21T12:04:37.259Z,1004.25
2018-09-21T12:05:37.672Z,1004.26
2018-09-21T12:06:37.234Z,1004.26
2018-09-21T12:07:37.228Z,1004.21
2018-09-21T12:08:37.218Z,1004.34
2018-09-21T12:09:37.228Z,1004.38